Time;durP1;ratioP1;P1;durP2;ratioP2;P2;SDS_P1;SDS_P2;PMS_P1;PMS_P2;Temp;Humidity;BMP_temperature;BMP_pressure;BME280_temperature;BME280_humidity;BME280_pressure;Samples;Min_cycle;Max_cycle;Signal;HPM_P1;HPM_P2
2022/07/28 00:02:07;;;;;;;0.57;0.40;;;23.30;52.10;;;;;;4509609;31;20060;-66
2022/07/28 00:04:34;;;;;;;1.60;0.40;;;23.30;51.80;;;;;;4509385;31;20065;-67
2022/07/28 00:07:00;;;;;;;1.17;0.40;;;23.30;51.80;;;;;;4509607;31;20564;-67
2022/07/28 00:09:26;;;;;;;1.20;0.30;;;23.30;51.80;;;;;;4509403;31;20400;-67
2022/07/28 00:11:52;;;;;;;1.95;0.47;;;23.20;51.80;;;;;;4509371;31;20266;-66
2022/07/28 00:14:19;;;;;;;1.65;0.40;;;23.30;51.90;;;;;;4508984;31;20068;-66
2022/07/28 00:16:46;;;;;;;0.77;0.35;;;23.30;51.90;;;;;;4509041;31;20077;-66
2022/07/28 00:19:11;;;;;;;0.60;0.40;;;23.20;51.80;;;;;;4509219;31;20596;-66
2022/07/28 00:21:37;;;;;;;1.08;0.30;;;23.20;51.80;;;;;;4509179;31;20065;-66
2022/07/28 00:24:03;;;;;;;1.08;0.40;;;23.20;51.80;;;;;;4509099;31;20057;-67
2022/07/28 00:26:29;;;;;;;1.05;0.50;;;23.20;51.80;;;;;;4508816;31;20094;-66
2022/07/28 00:28:55;;;;;;;0.77;0.35;;;23.20;51.80;;;;;;4508880;31;20222;-67
2022/07/28 00:31:21;;;;;;;0.65;0.30;;;23.20;51.80;;;;;;4508700;31;20392;-66
2022/07/28 00:33:47;;;;;;;0.80;0.30;;;23.20;51.80;;;;;;4494660;31;20081;-66
2022/07/28 00:36:13;;;;;;;0.98;0.30;;;23.20;51.80;;;;;;4494375;31;20371;-66
2022/07/28 00:38:39;;;;;;;1.08;0.38;;;23.20;51.90;;;;;;4508826;31;20134;-66
2022/07/28 00:41:11;;;;;;;0.95;0.40;;;23.10;51.80;;;;;;4508549;31;20064;-66
2022/07/28 00:43:48;;;;;;;0.75;0.30;;;23.10;51.80;;;;;;4508881;31;20139;-66
2022/07/28 00:46:15;;;;;;;0.52;0.30;;;23.10;51.80;;;;;;4508875;31;20207;-66
2022/07/28 00:48:49;;;;;;;0.47;0.20;;;23.10;51.80;;;;;;4508478;31;20507;-66
2022/07/28 00:51:17;;;;;;;0.63;0.30;;;23.10;51.80;;;;;;4508942;31;20080;-67
2022/07/28 00:53:44;;;;;;;0.80;0.30;;;23.10;51.90;;;;;;4508633;31;20528;-66
2022/07/28 00:56:10;;;;;;;0.93;0.30;;;23.10;51.90;;;;;;4508586;31;20076;-66
2022/07/28 00:58:37;;;;;;;0.73;0.40;;;23.10;51.90;;;;;;4508605;31;20112;-66
2022/07/28 01:01:05;;;;;;;0.85;0.30;;;23.10;51.90;;;;;;4508573;31;20428;-67
2022/07/28 01:03:33;;;;;;;0.90;0.30;;;23.10;51.90;;;;;;4508782;31;20260;-66
2022/07/28 01:06:33;;;;;;;0.50;0.20;;;23.10;51.90;;;;;;4508503;31;20244;-66
2022/07/28 01:09:17;;;;;;;0.93;0.30;;;23.10;51.90;;;;;;4508232;31;20080;-66
2022/07/28 01:11:52;;;;;;;0.35;0.20;;;23.10;52.00;;;;;;4508554;31;20076;-67
2022/07/28 01:14:31;;;;;;;0.88;0.32;;;23.10;52.00;;;;;;4508624;31;20494;-66
2022/07/28 01:17:32;;;;;;;0.35;0.28;;;23.10;52.00;;;;;;4508457;31;20064;-66
2022/07/28 01:20:27;;;;;;;0.43;0.20;;;23.10;52.00;;;;;;4492412;31;20155;-67
2022/07/28 01:22:56;;;;;;;0.50;0.35;;;23.10;52.10;;;;;;4508305;31;20076;-66
2022/07/28 01:25:30;;;;;;;0.70;0.40;;;23.10;52.10;;;;;;4508212;31;20697;-66
2022/07/28 01:28:14;;;;;;;0.63;0.30;;;23.00;52.00;;;;;;4508498;31;20061;-66
2022/07/28 01:30:46;;;;;;;0.85;0.40;;;23.00;52.00;;;;;;4508182;31;20498;-66
2022/07/28 01:33:20;;;;;;;0.40;0.30;;;23.00;52.10;;;;;;4493497;31;20168;-66
2022/07/28 01:36:09;;;;;;;0.70;0.40;;;23.00;52.10;;;;;;4507858;31;20146;-66
2022/07/28 01:38:37;;;;;;;0.50;0.20;;;23.00;52.10;;;;;;4507573;31;20065;-66
2022/07/28 01:41:06;;;;;;;0.45;0.20;;;23.00;52.10;;;;;;4507841;31;20418;-66
2022/07/28 01:43:35;;;;;;;1.48;0.30;;;23.00;52.10;;;;;;4493399;31;20197;-66
2022/07/28 01:46:03;;;;;;;1.13;0.40;;;23.00;52.10;;;;;;4507936;31;20077;-66
2022/07/28 01:48:30;;;;;;;0.90;0.30;;;23.00;52.20;;;;;;4507655;31;20085;-66
2022/07/28 01:50:56;;;;;;;0.63;0.32;;;23.00;52.20;;;;;;4507913;31;20090;-67
2022/07/28 01:53:24;;;;;;;0.40;0.30;;;23.00;52.20;;;;;;4507821;31;20180;-66
2022/07/28 01:55:52;;;;;;;0.45;0.32;;;23.00;52.20;;;;;;4507546;31;20497;-67
2022/07/28 01:58:21;;;;;;;0.68;0.30;;;22.90;52.20;;;;;;4508094;31;20087;-66
2022/07/28 02:00:51;;;;;;;2.63;0.40;;;22.90;52.20;;;;;;4507831;31;20076;-66
2022/07/28 02:03:20;;;;;;;0.73;0.38;;;22.90;52.20;;;;;;4507515;31;20098;-66
2022/07/28 02:05:49;;;;;;;2.78;0.40;;;22.90;52.20;;;;;;4507778;31;20065;-67
2022/07/28 02:08:18;;;;;;;1.10;0.30;;;22.90;52.30;;;;;;4508125;31;20165;-66
2022/07/28 02:11:38;;;;;;;0.93;0.40;;;22.90;52.30;;;;;;4508003;31;20092;-67
2022/07/28 02:13:33;;;;;;;0.80;0.32;;;22.90;52.30;;;;;;4507609;31;20085;-67
2022/07/28 02:16:01;;;;;;;0.73;0.30;;;22.90;52.40;;;;;;4507459;31;20162;-67
2022/07/28 02:18:28;;;;;;;0.82;0.40;;;22.90;52.40;;;;;;4507697;31;20068;-67
2022/07/28 02:20:54;;;;;;;0.30;0.25;;;22.90;52.40;;;;;;4507641;31;20166;-66
2022/07/28 02:23:22;;;;;;;0.90;0.32;;;22.90;52.40;;;;;;4507924;31;20091;-66
2022/07/28 02:25:50;;;;;;;0.80;0.40;;;22.90;52.40;;;;;;4508125;31;20072;-66
2022/07/28 02:28:20;;;;;;;0.40;0.30;;;22.90;52.50;;;;;;4507530;31;20210;-66
2022/07/28 02:30:53;;;;;;;0.52;0.22;;;22.90;52.50;;;;;;4508076;31;20080;-66
2022/07/28 02:33:22;;;;;;;0.30;0.20;;;22.90;52.50;;;;;;4507676;31;20084;-66
2022/07/28 02:35:52;;;;;;;0.43;0.20;;;22.90;52.60;;;;;;4507366;31;20543;-66
2022/07/28 02:38:44;;;;;;;0.40;0.20;;;22.90;52.60;;;;;;4507518;31;20438;-66
2022/07/28 02:41:16;;;;;;;0.63;0.30;;;22.90;52.60;;;;;;4501639;31;20091;-66
2022/07/28 02:43:45;;;;;;;0.55;0.30;;;22.90;52.70;;;;;;4493169;31;20375;-67
2022/07/28 02:46:16;;;;;;;0.60;0.20;;;22.80;52.60;;;;;;4507510;31;20088;-66
2022/07/28 02:48:46;;;;;;;0.75;0.22;;;22.90;52.70;;;;;;4509099;31;20119;-66
2022/07/28 02:51:13;;;;;;;0.52;0.30;;;22.80;52.60;;;;;;4510531;31;20214;-66
2022/07/28 02:53:40;;;;;;;0.28;0.10;;;22.80;52.60;;;;;;4510651;31;20514;-66
2022/07/28 02:56:07;;;;;;;0.95;0.30;;;22.80;52.60;;;;;;4510401;31;20080;-66
2022/07/28 02:58:35;;;;;;;0.50;0.30;;;22.80;52.70;;;;;;4510320;31;20076;-66
2022/07/28 03:01:01;;;;;;;0.47;0.30;;;22.80;52.70;;;;;;4510449;31;20410;-66
2022/07/28 03:03:30;;;;;;;0.50;0.20;;;22.80;52.70;;;;;;4510331;31;20107;-66
2022/07/28 03:05:56;;;;;;;0.38;0.30;;;22.80;52.70;;;;;;4510588;31;20480;-66
2022/07/28 03:08:21;;;;;;;0.60;0.30;;;22.80;52.80;;;;;;4510284;31;20181;-66
2022/07/28 03:10:47;;;;;;;0.77;0.30;;;22.80;52.80;;;;;;4509832;31;20077;-66
2022/07/28 03:13:13;;;;;;;0.70;0.30;;;22.80;52.80;;;;;;4495625;31;20469;-66
2022/07/28 03:15:39;;;;;;;0.30;0.20;;;22.80;52.80;;;;;;4510333;31;20065;-66
2022/07/28 03:18:06;;;;;;;0.57;0.20;;;22.80;52.80;;;;;;4509778;31;20089;-66
2022/07/28 03:20:33;;;;;;;0.32;0.20;;;22.80;52.90;;;;;;4510041;31;20161;-67
2022/07/28 03:22:59;;;;;;;0.10;0.10;;;22.80;52.90;;;;;;4510023;31;20098;-67
2022/07/28 03:25:42;;;;;;;0.65;0.30;;;22.80;52.90;;;;;;4509913;31;20088;-66
2022/07/28 03:28:13;;;;;;;0.20;0.13;;;22.80;52.90;;;;;;4510302;31;20100;-66
2022/07/28 03:30:49;;;;;;;0.75;0.20;;;22.80;53.00;;;;;;4509995;31;20286;-66
2022/07/28 03:33:15;;;;;;;0.68;0.20;;;22.70;52.90;;;;;;4509898;31;20069;-66
2022/07/28 03:35:44;;;;;;;0.40;0.30;;;22.70;52.90;;;;;;4509620;31;20222;-66
2022/07/28 03:38:13;;;;;;;1.05;0.40;;;22.70;53.00;;;;;;4509761;31;20073;-66
2022/07/28 03:40:41;;;;;;;1.20;0.50;;;22.70;53.00;;;;;;4509889;31;20096;-66
2022/07/28 03:43:11;;;;;;;0.40;0.20;;;22.70;53.00;;;;;;4509999;31;20178;-66
2022/07/28 03:45:37;;;;;;;0.60;0.30;;;22.70;53.00;;;;;;4509395;31;20096;-66
2022/07/28 03:48:04;;;;;;;0.68;0.20;;;22.70;53.00;;;;;;4509825;31;20124;-66
2022/07/28 03:50:32;;;;;;;0.77;0.30;;;22.70;53.00;;;;;;4509565;31;20085;-66
2022/07/28 03:53:01;;;;;;;0.98;0.22;;;22.70;53.10;;;;;;4509241;31;20189;-66
2022/07/28 03:55:27;;;;;;;0.43;0.20;;;22.70;53.10;;;;;;4509286;31;20155;-66
2022/07/28 03:57:55;;;;;;;0.75;0.30;;;22.70;53.10;;;;;;4509734;31;20297;-66
2022/07/28 04:00:22;;;;;;;0.60;0.20;;;22.70;53.10;;;;;;4509020;31;20095;-66
2022/07/28 04:02:48;;;;;;;0.65;0.20;;;22.70;53.10;;;;;;4509538;31;20521;-67
2022/07/28 04:05:16;;;;;;;0.60;0.20;;;22.70;53.10;;;;;;4509405;31;20537;-66
2022/07/28 04:07:42;;;;;;;0.65;0.20;;;22.60;53.10;;;;;;4509407;31;20084;-66
2022/07/28 04:10:11;;;;;;;0.40;0.30;;;22.60;53.10;;;;;;4509623;31;20140;-66
2022/07/28 04:12:51;;;;;;;0.63;0.20;;;22.60;53.10;;;;;;4509201;31;20088;-67
2022/07/28 04:15:18;;;;;;;0.57;0.25;;;22.60;53.10;;;;;;4509403;31;20157;-66
2022/07/28 04:17:46;;;;;;;0.75;0.20;;;22.60;53.20;;;;;;4494664;31;20509;-66
2022/07/28 04:20:13;;;;;;;0.52;0.30;;;22.60;53.20;;;;;;4509476;31;20504;-66
2022/07/28 04:22:39;;;;;;;0.32;0.20;;;22.60;53.20;;;;;;4508909;31;20068;-67
2022/07/28 04:25:06;;;;;;;0.30;0.20;;;22.60;53.20;;;;;;4509307;31;20186;-66
2022/07/28 04:27:34;;;;;;;0.32;0.20;;;22.60;53.20;;;;;;4509362;31;20095;-66
2022/07/28 04:30:00;;;;;;;0.43;0.13;;;22.60;53.20;;;;;;4509241;31;20186;-67
2022/07/28 04:32:26;;;;;;;0.35;0.10;;;22.60;53.20;;;;;;4509189;31;20406;-66
2022/07/28 04:34:51;;;;;;;0.55;0.20;;;22.60;53.20;;;;;;4508802;31;20195;-67
2022/07/28 04:37:17;;;;;;;0.30;0.17;;;22.60;53.30;;;;;;4508533;31;20166;-66
2022/07/28 04:39:44;;;;;;;0.55;0.10;;;22.60;53.30;;;;;;4494292;31;20108;-66
2022/07/28 04:42:10;;;;;;;0.35;0.20;;;22.60;53.30;;;;;;4508945;31;20099;-66
2022/07/28 04:44:41;;;;;;;0.63;0.20;;;22.60;53.30;;;;;;4508684;31;20069;-66
2022/07/28 04:47:08;;;;;;;0.90;0.20;;;22.60;53.30;;;;;;4508833;31;20069;-66
2022/07/28 04:49:33;;;;;;;0.30;0.20;;;22.60;53.30;;;;;;4508713;31;20577;-68
2022/07/28 04:52:00;;;;;;;0.60;0.20;;;22.60;53.30;;;;;;4508626;31;20080;-66
2022/07/28 04:54:25;;;;;;;0.50;0.22;;;22.60;53.30;;;;;;4508639;31;20092;-66
2022/07/28 04:56:51;;;;;;;0.75;0.20;;;22.50;53.30;;;;;;4508804;31;20121;-66
2022/07/28 04:59:17;;;;;;;0.40;0.20;;;22.50;53.30;;;;;;4508529;31;20276;-66
2022/07/28 05:01:43;;;;;;;1.17;0.20;;;22.50;53.30;;;;;;4508753;31;20121;-66
2022/07/28 05:04:09;;;;;;;0.43;0.20;;;22.50;53.30;;;;;;4508222;31;20093;-66
2022/07/28 05:06:36;;;;;;;0.52;0.30;;;22.50;53.30;;;;;;4508492;31;20127;-66
2022/07/28 05:09:03;;;;;;;0.50;0.20;;;22.50;53.30;;;;;;4508448;31;20085;-66
2022/07/28 05:11:28;;;;;;;0.90;0.20;;;22.50;53.40;;;;;;4507840;31;20100;-66
2022/07/28 05:13:54;;;;;;;0.55;0.40;;;22.50;53.40;;;;;;4507963;31;20132;-67
2022/07/28 05:16:20;;;;;;;0.55;0.20;;;22.50;53.40;;;;;;4493991;31;20158;-66
2022/07/28 05:18:46;;;;;;;0.30;0.20;;;22.50;53.40;;;;;;4508042;31;20154;-66
2022/07/28 05:21:12;;;;;;;0.20;0.10;;;22.50;53.40;;;;;;4508515;31;20087;-67
2022/07/28 05:23:38;;;;;;;0.68;0.20;;;22.50;53.40;;;;;;4507963;31;20073;-66
2022/07/28 05:26:05;;;;;;;0.52;0.13;;;22.50;53.40;;;;;;4508196;31;20112;-66
2022/07/28 05:28:32;;;;;;;0.40;0.20;;;22.50;53.50;;;;;;4508118;31;20065;-67
2022/07/28 05:30:58;;;;;;;0.47;0.15;;;22.50;53.50;;;;;;4508127;31;20387;-66
2022/07/28 05:33:24;;;;;;;0.68;0.20;;;22.50;53.50;;;;;;4507763;31;20123;-66
2022/07/28 05:35:58;;;;;;;0.73;0.30;;;22.50;53.50;;;;;;4507886;31;20079;-66
2022/07/28 05:38:24;;;;;;;;;;;22.50;53.50;;;;;;4508538;31;20270;-66
2022/07/28 05:40:50;;;;;;;0.30;0.20;;;22.50;53.50;;;;;;4507914;31;19983;-66
2022/07/28 05:43:16;;;;;;;0.88;0.10;;;22.40;53.50;;;;;;4508000;31;20072;-66
2022/07/28 05:45:42;;;;;;;0.32;0.17;;;22.40;53.50;;;;;;4507719;31;20083;-66
2022/07/28 05:48:07;;;;;;;0.30;0.20;;;22.40;53.50;;;;;;4507642;31;20219;-66
2022/07/28 05:50:33;;;;;;;0.30;0.10;;;22.40;53.50;;;;;;4507915;31;20113;-66
2022/07/28 05:52:59;;;;;;;1.20;0.30;;;22.40;53.50;;;;;;4508053;31;20154;-66
2022/07/28 05:55:25;;;;;;;0.40;0.20;;;22.40;53.60;;;;;;4507604;31;20080;-66
2022/07/28 05:57:52;;;;;;;0.30;0.20;;;22.50;53.70;;;;;;4507602;31;20498;-66
2022/07/28 06:00:20;;;;;;;0.20;0.20;;;22.40;53.60;;;;;;4508084;31;20529;-67
2022/07/28 06:02:47;;;;;;;1.48;0.20;;;22.40;53.70;;;;;;4507876;31;20207;-66
2022/07/28 06:05:16;;;;;;;0.57;0.30;;;22.40;53.70;;;;;;4507799;31;20266;-66
2022/07/28 06:07:43;;;;;;;0.50;0.30;;;22.40;53.70;;;;;;4507766;31;20265;-66
2022/07/28 06:10:11;;;;;;;0.20;0.05;;;22.40;53.70;;;;;;4507525;31;20441;-66
2022/07/28 06:12:41;;;;;;;0.30;0.20;;;22.40;53.70;;;;;;4507309;31;20076;-67
2022/07/28 06:15:15;;;;;;;0.60;0.20;;;22.40;53.70;;;;;;4507460;31;20525;-66
2022/07/28 06:17:41;;;;;;;0.08;0.08;;;22.40;53.70;;;;;;4507783;31;20077;-66
2022/07/28 06:20:09;;;;;;;0.65;0.20;;;22.40;53.70;;;;;;4507950;31;20433;-66
2022/07/28 06:22:46;;;;;;;0.30;0.10;;;22.40;53.70;;;;;;4507911;31;20389;-66
2022/07/28 06:25:17;;;;;;;0.45;0.20;;;22.40;53.70;;;;;;4510834;31;20073;-66
2022/07/28 06:27:47;;;;;;;0.73;0.30;;;22.40;53.80;;;;;;4510873;31;20084;-66
2022/07/28 06:30:14;;;;;;;0.30;0.20;;;22.40;53.80;;;;;;4510797;31;20073;-66
2022/07/28 06:32:40;;;;;;;0.30;0.20;;;22.40;53.80;;;;;;4511037;31;20087;-66
2022/07/28 06:35:06;;;;;;;0.22;0.15;;;22.40;53.80;;;;;;4510730;31;20401;-66
2022/07/28 06:37:32;;;;;;;0.30;0.20;;;22.30;53.80;;;;;;4510509;31;20092;-66
2022/07/28 06:39:58;;;;;;;0.43;0.13;;;22.30;53.80;;;;;;4510890;31;20095;-66
2022/07/28 06:42:24;;;;;;;0.50;0.20;;;22.30;53.80;;;;;;4510460;31;20112;-66
2022/07/28 06:44:50;;;;;;;3.60;0.20;;;22.30;53.80;;;;;;4496048;31;20088;-67
2022/07/28 06:47:17;;;;;;;3.55;0.30;;;22.30;53.90;;;;;;4510851;31;20068;-66
2022/07/28 06:49:43;;;;;;;1.02;0.40;;;22.40;53.80;;;;;;4496079;31;20525;-67
2022/07/28 06:52:09;;;;;;;0.60;0.38;;;22.30;53.70;;;;;;4510456;31;20065;-66
2022/07/28 06:54:35;;;;;;;0.70;0.30;;;22.30;53.50;;;;;;4482914;31;20501;-67
2022/07/28 06:57:02;;;;;;;0.82;0.40;;;22.30;53.50;;;;;;4510162;31;20072;-67
2022/07/28 06:59:28;;;;;;;1.90;0.80;;;22.30;53.70;;;;;;4510115;31;20088;-67
2022/07/28 07:01:54;;;;;;;4.95;0.50;;;22.30;53.70;;;;;;4510362;31;20105;-67
2022/07/28 07:04:20;;;;;;;0.73;0.40;;;22.30;53.70;;;;;;4510012;31;20145;-67
2022/07/28 07:06:46;;;;;;;0.45;0.22;;;22.40;53.90;;;;;;4510628;31;20084;-67
2022/07/28 07:09:12;;;;;;;1.30;0.80;;;22.40;54.00;;;;;;4510298;31;20552;-67
2022/07/28 07:11:38;;;;;;;1.70;0.30;;;22.40;54.10;;;;;;4510161;31;20069;-67
2022/07/28 07:14:04;;;;;;;1.63;0.60;;;22.50;54.10;;;;;;4510266;31;20112;-67
2022/07/28 07:16:30;;;;;;;2.10;0.50;;;22.50;54.20;;;;;;4495879;31;20077;-67
2022/07/28 07:18:56;;;;;;;2.45;0.57;;;22.50;54.10;;;;;;4510368;31;20425;-67
2022/07/28 07:21:21;;;;;;;3.70;0.50;;;22.60;54.10;;;;;;4510133;31;20223;-67
2022/07/28 07:23:48;;;;;;;1.33;0.40;;;22.60;54.00;;;;;;4509847;31;20081;-67
2022/07/28 07:26:14;;;;;;;2.00;0.52;;;22.70;54.00;;;;;;4509985;31;20185;-67
2022/07/28 07:28:41;;;;;;;1.23;0.45;;;22.70;53.90;;;;;;4509635;31;20124;-67
2022/07/28 07:31:07;;;;;;;2.08;0.70;;;22.80;53.90;;;;;;4495762;31;20103;-67
2022/07/28 07:33:32;;;;;;;2.95;0.70;;;22.80;53.80;;;;;;4509724;31;20414;-67
2022/07/28 07:35:58;;;;;;;2.28;0.65;;;22.80;53.70;;;;;;4508742;31;20068;-67
2022/07/28 07:38:24;;;;;;;3.65;0.70;;;22.90;53.70;;;;;;4509726;31;20097;-67
2022/07/28 07:40:50;;;;;;;2.25;0.65;;;22.90;53.70;;;;;;4495566;31;20069;-67
2022/07/28 07:43:17;;;;;;;1.10;0.60;;;22.90;53.60;;;;;;4509907;31;20131;-67
2022/07/28 07:45:43;;;;;;;1.15;0.47;;;23.00;53.60;;;;;;4509426;31;20535;-66
2022/07/28 07:48:09;;;;;;;2.38;0.77;;;23.00;53.40;;;;;;4509861;31;20097;-67
2022/07/28 07:50:36;;;;;;;4.55;0.60;;;23.10;53.30;;;;;;4509576;31;20099;-67
2022/07/28 07:53:02;;;;;;;1.70;0.60;;;23.10;53.20;;;;;;4509476;31;20214;-67
2022/07/28 07:55:28;;;;;;;3.53;0.60;;;23.10;53.10;;;;;;4509313;31;20080;-67
2022/07/28 07:57:54;;;;;;;2.05;0.55;;;23.20;53.10;;;;;;4509521;31;20209;-66
2022/07/28 08:00:20;;;;;;;2.17;0.50;;;23.20;53.10;;;;;;4509221;31;20218;-68
2022/07/28 08:02:46;;;;;;;2.15;0.45;;;23.30;53.10;;;;;;4509698;31;20077;-66
2022/07/28 08:05:12;;;;;;;2.70;0.70;;;23.30;53.00;;;;;;4509097;31;20193;-66
2022/07/28 08:07:38;;;;;;;1.80;0.60;;;23.30;52.90;;;;;;4509418;31;20100;-66
2022/07/28 08:10:05;;;;;;;2.00;0.60;;;23.40;53.00;;;;;;4509259;31;20193;-66
2022/07/28 08:12:31;;;;;;;0.80;0.40;;;23.40;53.00;;;;;;4509105;31;20069;-66
2022/07/28 08:14:57;;;;;;;2.78;0.60;;;23.40;52.90;;;;;;4509268;31;20658;-66
2022/07/28 08:17:23;;;;;;;3.80;0.65;;;23.40;52.90;;;;;;4509487;31;20574;-66
2022/07/28 08:19:49;;;;;;;3.08;0.63;;;23.40;52.70;;;;;;4509449;31;20509;-67
2022/07/28 08:22:16;;;;;;;2.63;0.68;;;23.50;52.60;;;;;;4509232;31;20082;-66
2022/07/28 08:24:42;;;;;;;2.03;0.50;;;23.50;52.50;;;;;;4509124;31;20506;-67
2022/07/28 08:27:08;;;;;;;2.47;0.60;;;23.50;52.30;;;;;;4508837;31;20108;-67
2022/07/28 08:29:34;;;;;;;1.27;0.60;;;23.50;52.20;;;;;;4508755;31;20132;-66
2022/07/28 08:32:02;;;;;;;1.95;0.70;;;23.50;52.20;;;;;;4509162;31;20113;-67
2022/07/28 08:34:32;;;;;;;2.35;0.60;;;23.50;52.20;;;;;;4508975;31;20095;-67
2022/07/28 08:36:59;;;;;;;3.70;1.00;;;23.60;52.30;;;;;;4508953;31;20092;-67
2022/07/28 08:39:25;;;;;;;1.30;0.70;;;23.60;52.30;;;;;;4508902;31;20098;-67
2022/07/28 08:41:58;;;;;;;1.77;0.60;;;23.60;52.40;;;;;;4508856;31;20065;-67
2022/07/28 08:44:29;;;;;;;4.97;0.60;;;23.60;52.40;;;;;;4509109;31;20112;-67
2022/07/28 08:46:57;;;;;;;3.45;0.85;;;23.60;52.30;;;;;;4508980;31;20072;-67
2022/07/28 08:49:23;;;;;;;4.82;0.80;;;23.60;52.20;;;;;;4508720;31;20088;-67
2022/07/28 08:51:51;;;;;;;2.90;0.70;;;23.60;52.20;;;;;;4508644;31;20072;-66
2022/07/28 08:54:25;;;;;;;2.17;0.73;;;23.60;52.20;;;;;;4508955;31;20080;-67
2022/07/28 08:56:51;;;;;;;2.10;0.60;;;23.60;52.10;;;;;;4508701;31;20162;-66
2022/07/28 08:59:18;;;;;;;2.30;0.63;;;23.60;52.20;;;;;;4508590;31;20094;-66
2022/07/28 09:01:45;;;;;;;1.48;0.68;;;23.50;52.20;;;;;;4508570;31;20112;-66
2022/07/28 09:04:11;;;;;;;3.10;0.82;;;23.50;52.20;;;;;;4508536;31;20108;-66
2022/07/28 09:06:40;;;;;;;1.83;0.70;;;23.40;52.00;;;;;;4508469;31;20084;-66
2022/07/28 09:09:08;;;;;;;1.92;0.55;;;23.40;51.90;;;;;;4493736;31;20092;-67
2022/07/28 09:11:37;;;;;;;2.35;0.60;;;23.40;51.90;;;;;;4508298;31;20112;-68
2022/07/28 09:14:04;;;;;;;1.90;0.60;;;23.40;51.90;;;;;;4508538;31;20099;-66
2022/07/28 09:16:30;;;;;;;5.95;0.77;;;23.30;51.80;;;;;;4508322;31;20490;-66
2022/07/28 09:18:56;;;;;;;1.27;0.57;;;23.30;51.80;;;;;;4508033;31;20288;-67
2022/07/28 09:21:22;;;;;;;2.58;0.70;;;23.30;51.90;;;;;;4508271;31;20216;-66
2022/07/28 09:23:48;;;;;;;2.35;0.60;;;23.20;51.80;;;;;;4508292;31;20510;-67
2022/07/28 09:26:16;;;;;;;2.75;0.70;;;23.20;51.80;;;;;;4508467;31;20473;-68
2022/07/28 09:28:46;;;;;;;3.72;0.68;;;23.20;51.70;;;;;;4508265;31;20120;-66
2022/07/28 09:31:12;;;;;;;1.95;0.55;;;23.10;51.60;;;;;;4508155;31;20102;-66
2022/07/28 09:33:38;;;;;;;0.93;0.45;;;23.10;51.60;;;;;;4508104;31;20510;-67
2022/07/28 09:36:15;;;;;;;2.13;0.80;;;23.10;51.60;;;;;;4507831;31;20065;-71
2022/07/28 09:38:41;;;;;;;1.88;0.60;;;23.10;51.50;;;;;;4508068;31;20088;-66
2022/07/28 09:41:07;;;;;;;2.10;0.70;;;23.10;51.50;;;;;;4508253;31;20080;-69
2022/07/28 09:43:38;;;;;;;2.20;0.47;;;23.10;51.50;;;;;;4507995;31;20600;-68
2022/07/28 09:46:13;;;;;;;2.55;0.60;;;23.00;51.20;;;;;;4508161;31;20429;-68
2022/07/28 09:48:48;;;;;;;1.30;0.50;;;23.00;51.10;;;;;;4508228;31;20064;-69
2022/07/28 09:51:16;;;;;;;3.40;0.70;;;23.00;51.10;;;;;;4508138;31;20557;-69
2022/07/28 09:53:42;;;;;;;3.38;0.80;;;23.00;51.20;;;;;;4508043;31;20080;-68
2022/07/28 09:56:09;;;;;;;1.33;0.60;;;23.00;51.30;;;;;;4507709;31;20069;-68
2022/07/28 09:58:36;;;;;;;3.72;0.60;;;22.90;52.10;;;;;;4507427;31;20193;-68
2022/07/28 10:01:11;;;;;;;1.42;0.47;;;22.90;51.10;;;;;;4507879;31;20081;-65
2022/07/28 10:03:39;;;;;;;1.80;0.57;;;22.90;51.30;;;;;;4508417;31;20061;-67
2022/07/28 10:06:10;;;;;;;1.17;0.40;;;22.90;51.20;;;;;;4507679;31;20108;-66
2022/07/28 10:08:42;;;;;;;2.47;0.60;;;22.90;51.00;;;;;;4508146;31;20096;-67
2022/07/28 10:11:09;;;;;;;0.82;0.52;;;22.90;51.00;;;;;;4507838;31;20088;-66
2022/07/28 10:13:54;;;;;;;1.95;0.57;;;22.90;51.00;;;;;;4507403;31;20226;-67
2022/07/28 10:16:22;;;;;;;2.08;0.60;;;22.90;50.90;;;;;;4508002;31;20531;-66
2022/07/28 10:18:48;;;;;;;1.30;0.60;;;22.90;50.90;;;;;;4507343;31;20094;-67
2022/07/28 10:21:17;;;;;;;4.65;0.60;;;22.90;50.80;;;;;;4507792;31;20187;-66
2022/07/28 10:23:48;;;;;;;1.73;0.55;;;22.90;50.80;;;;;;4507639;31;20517;-67
2022/07/28 10:26:15;;;;;;;8.25;0.70;;;22.90;50.80;;;;;;4507558;31;20120;-66
2022/07/28 10:28:48;;;;;;;2.35;0.50;;;22.90;50.60;;;;;;4507663;31;20073;-67
2022/07/28 10:31:27;;;;;;;2.13;0.50;;;22.90;50.50;;;;;;4507467;31;20072;-67
2022/07/28 10:33:57;;;;;;;2.80;0.63;;;22.90;50.40;;;;;;4507517;31;20088;-66
2022/07/28 10:36:24;;;;;;;1.33;0.55;;;22.90;50.50;;;;;;4507371;31;20383;-66
2022/07/28 10:38:58;;;;;;;2.28;0.52;;;22.90;50.60;;;;;;4507164;31;20093;-66
2022/07/28 10:41:27;;;;;;;3.00;0.63;;;22.90;50.60;;;;;;4507557;31;20068;-66
2022/07/28 10:43:55;;;;;;;3.50;0.70;;;22.90;50.60;;;;;;4492916;31;20076;-67
2022/07/28 10:46:21;;;;;;;1.85;0.50;;;22.90;50.50;;;;;;4507200;31;20077;-66
2022/07/28 10:48:47;;;;;;;2.63;0.70;;;22.90;50.40;;;;;;4492853;31;20053;-67
2022/07/28 10:51:14;;;;;;;1.58;0.45;;;22.90;50.30;;;;;;4507177;31;20076;-66
2022/07/28 10:54:07;;;;;;;0.90;0.50;;;22.90;50.30;;;;;;4506990;31;20083;-67
2022/07/28 10:56:51;;;;;;;3.65;0.75;;;22.90;50.30;;;;;;4500684;31;20081;-66
2022/07/28 10:59:22;;;;;;;2.15;0.73;;;22.90;50.40;;;;;;4507393;31;20133;-66
2022/07/28 11:01:48;;;;;;;2.35;0.55;;;22.90;50.60;;;;;;4507544;31;20397;-66
2022/07/28 11:04:43;;;;;;;1.42;0.55;;;22.90;50.60;;;;;;4507300;31;20105;-65
2022/07/28 11:07:11;;;;;;;2.58;0.70;;;22.90;50.80;;;;;;4507251;31;20077;-66
2022/07/28 11:09:37;;;;;;;3.60;0.93;;;22.90;51.00;;;;;;4508221;31;20213;-66
2022/07/28 11:12:03;;;;;;;2.17;0.47;;;22.90;51.10;;;;;;4509779;31;20089;-65
2022/07/28 11:14:35;;;;;;;1.75;0.50;;;22.90;51.20;;;;;;4510218;31;20077;-66
2022/07/28 11:17:03;;;;;;;2.88;0.65;;;22.90;51.40;;;;;;4510526;31;20120;-66
2022/07/28 11:19:31;;;;;;;1.85;0.82;;;22.90;51.60;;;;;;4510396;31;20076;-66
2022/07/28 11:22:18;;;;;;;1.58;0.70;;;22.90;51.80;;;;;;4510066;31;20088;-66
2022/07/28 11:24:56;;;;;;;4.50;0.75;;;22.90;51.90;;;;;;4510028;31;20073;-66
2022/07/28 11:27:40;;;;;;;2.75;0.57;;;22.90;52.10;;;;;;4509740;31;20417;-66
2022/07/28 11:30:30;;;;;;;2.50;0.63;;;22.90;52.10;;;;;;4510316;31;20081;-66
2022/07/28 11:32:58;;;;;;;1.27;0.40;;;22.90;52.20;;;;;;4509973;31;20069;-66
2022/07/28 11:35:25;;;;;;;1.10;0.40;;;22.90;52.20;;;;;;4495815;31;20091;-66
2022/07/28 11:38:00;;;;;;;4.28;0.57;;;22.90;52.20;;;;;;4495573;31;20083;-66
2022/07/28 11:40:30;;;;;;;1.65;0.70;;;22.90;52.20;;;;;;4510205;31;20140;-66
2022/07/28 11:45:51;;;;;;;2.13;0.50;;;22.90;52.40;;;;;;4504319;31;20069;-66
2022/07/28 11:48:24;;;;;;;1.20;0.40;;;22.90;52.50;;;;;;4509762;31;20700;-66
2022/07/28 11:51:02;;;;;;;1.67;0.52;;;22.90;52.50;;;;;;4510389;31;20210;-66
2022/07/28 11:53:40;;;;;;;1.48;0.70;;;22.90;52.60;;;;;;4509887;31;20218;-67
2022/07/28 11:56:08;;;;;;;1.17;0.63;;;22.90;52.70;;;;;;4510015;31;20135;-66
2022/07/28 11:58:35;;;;;;;1.25;0.40;;;22.90;52.70;;;;;;4509335;31;20087;-66
2022/07/28 12:01:18;;;;;;;1.17;0.25;;;22.90;52.70;;;;;;4509554;31;20596;-66
2022/07/28 12:03:52;;;;;;;2.20;0.40;;;22.90;52.70;;;;;;4509840;31;20065;-66
2022/07/28 12:06:19;;;;;;;1.65;0.63;;;22.90;52.80;;;;;;4509306;31;20069;-66
2022/07/28 12:08:58;;;;;;;2.08;0.50;;;22.90;52.70;;;;;;4509350;31;20124;-67
2022/07/28 12:11:26;;;;;;;2.58;0.63;;;22.90;52.80;;;;;;4509336;31;20069;-66
2022/07/28 12:14:11;;;;;;;1.10;0.45;;;22.90;52.90;;;;;;4509257;31;20092;-66
2022/07/28 12:16:41;;;;;;;1.95;0.68;;;22.90;52.90;;;;;;4509299;31;20501;-66
2022/07/28 12:19:07;;;;;;;1.77;0.60;;;22.90;52.80;;;;;;4509532;31;20080;-67
2022/07/28 12:21:40;;;;;;;2.58;0.50;;;22.90;52.90;;;;;;4508523;31;20162;-66
2022/07/28 12:24:08;;;;;;;0.80;0.33;;;22.90;52.90;;;;;;4508963;31;20170;-66
2022/07/28 12:26:38;;;;;;;1.35;0.55;;;22.90;52.90;;;;;;4509497;31;20085;-66
2022/07/28 12:29:05;;;;;;;0.88;0.40;;;22.90;53.00;;;;;;4509386;31;20077;-66
2022/07/28 12:31:32;;;;;;;1.00;0.50;;;22.90;53.10;;;;;;4509013;31;20084;-65
2022/07/28 12:34:11;;;;;;;1.23;0.73;;;22.90;53.10;;;;;;4508963;31;20091;-66
2022/07/28 12:36:37;;;;;;;2.92;0.60;;;23.00;53.20;;;;;;4509016;31;20088;-66
2022/07/28 12:39:05;;;;;;;0.77;0.30;;;22.90;53.10;;;;;;4508935;31;20387;-66
2022/07/28 12:41:36;;;;;;;1.83;0.60;;;23.00;53.10;;;;;;4508786;31;20102;-66
2022/07/28 12:44:04;;;;;;;1.35;0.55;;;23.00;53.20;;;;;;4508573;31;20088;-65
2022/07/28 12:46:30;;;;;;;2.78;0.70;;;23.00;53.20;;;;;;4508898;31;20090;-66
2022/07/28 12:48:58;;;;;;;1.40;0.50;;;23.00;53.20;;;;;;4508719;31;20223;-66
2022/07/28 12:51:34;;;;;;;1.40;0.43;;;23.00;53.30;;;;;;4508762;31;20092;-65
2022/07/28 12:54:04;;;;;;;1.45;0.60;;;23.00;53.20;;;;;;4508823;31;20414;-66
2022/07/28 12:56:30;;;;;;;1.55;0.60;;;23.00;53.10;;;;;;4508871;31;20226;-66
2022/07/28 12:59:07;;;;;;;1.52;0.45;;;23.00;53.10;;;;;;4508708;31;20506;-65
2022/07/28 13:01:55;;;;;;;1.80;0.47;;;23.00;53.20;;;;;;4508660;31;20092;-66